sensor_id;sensor_type;location;lat;lon;timestamp;temperature;humidity
67893;DHT22;54688;52.376;16.744;2023-03-08T00:02:50;0.3;84.3
67893;DHT22;54688;52.376;16.744;2023-03-08T00:05:52;0.3;84.4
67893;DHT22;54688;52.376;16.744;2023-03-08T00:08:55;0.3;84.5
67893;DHT22;54688;52.376;16.744;2023-03-08T00:11:58;0.3;84.5
67893;DHT22;54688;52.376;16.744;2023-03-08T00:14:59;0.3;84.5
67893;DHT22;54688;52.376;16.744;2023-03-08T00:18:02;0.3;84.6
67893;DHT22;54688;52.376;16.744;2023-03-08T00:21:05;0.3;84.6
67893;DHT22;54688;52.376;16.744;2023-03-08T00:24:10;0.3;84.6
67893;DHT22;54688;52.376;16.744;2023-03-08T00:27:12;0.3;84.4
67893;DHT22;54688;52.376;16.744;2023-03-08T00:30:14;0.2;84.3
67893;DHT22;54688;52.376;16.744;2023-03-08T00:33:17;0.2;84.4
67893;DHT22;54688;52.376;16.744;2023-03-08T00:36:19;0.2;84.3
67893;DHT22;54688;52.376;16.744;2023-03-08T00:39:21;0.2;84.5
67893;DHT22;54688;52.376;16.744;2023-03-08T00:42:24;0.2;84.6
67893;DHT22;54688;52.376;16.744;2023-03-08T00:45:26;0.2;84.7
67893;DHT22;54688;52.376;16.744;2023-03-08T00:48:28;0.2;84.6
67893;DHT22;54688;52.376;16.744;2023-03-08T00:51:29;0.2;84.3
67893;DHT22;54688;52.376;16.744;2023-03-08T00:54:32;0.3;84.3
67893;DHT22;54688;52.376;16.744;2023-03-08T00:57:34;0.3;84.3
67893;DHT22;54688;52.376;16.744;2023-03-08T01:00:36;0.3;84.3
67893;DHT22;54688;52.376;16.744;2023-03-08T01:03:38;0.3;84.3
67893;DHT22;54688;52.376;16.744;2023-03-08T01:06:41;0.2;84.3
67893;DHT22;54688;52.376;16.744;2023-03-08T01:09:43;0.3;84.1
67893;DHT22;54688;52.376;16.744;2023-03-08T01:12:45;0.2;84.1
67893;DHT22;54688;52.376;16.744;2023-03-08T01:15:47;0.2;84.3
67893;DHT22;54688;52.376;16.744;2023-03-08T01:18:50;0.2;84.4
67893;DHT22;54688;52.376;16.744;2023-03-08T01:21:53;0.2;84.5
67893;DHT22;54688;52.376;16.744;2023-03-08T01:24:55;0.2;84.7
67893;DHT22;54688;52.376;16.744;2023-03-08T01:27:57;0.2;84.5
67893;DHT22;54688;52.376;16.744;2023-03-08T01:31:00;0.2;84.4
67893;DHT22;54688;52.376;16.744;2023-03-08T01:37:02;0.2;84.2
67893;DHT22;54688;52.376;16.744;2023-03-08T01:40:04;0.1;84.1
67893;DHT22;54688;52.376;16.744;2023-03-08T01:43:19;0.1;84.2
67893;DHT22;54688;52.376;16.744;2023-03-08T01:46:24;0.1;84.4
67893;DHT22;54688;52.376;16.744;2023-03-08T01:49:29;0;84.4
67893;DHT22;54688;52.376;16.744;2023-03-08T01:52:34;0;84.4
67893;DHT22;54688;52.376;16.744;2023-03-08T01:55:40;-0.1;84.4
67893;DHT22;54688;52.376;16.744;2023-03-08T01:58:43;-0.1;84.6
67893;DHT22;54688;52.376;16.744;2023-03-08T02:01:48;-0.1;84.9
67893;DHT22;54688;52.376;16.744;2023-03-08T02:04:50;-0.2;84.9
67893;DHT22;54688;52.376;16.744;2023-03-08T02:07:53;-0.2;85
67893;DHT22;54688;52.376;16.744;2023-03-08T02:10:55;-0.2;85.1
67893;DHT22;54688;52.376;16.744;2023-03-08T02:13:58;-0.2;85.1
67893;DHT22;54688;52.376;16.744;2023-03-08T02:17:01;-0.2;85.2
67893;DHT22;54688;52.376;16.744;2023-03-08T02:20:05;-0.3;85.4
67893;DHT22;54688;52.376;16.744;2023-03-08T02:23:12;-0.3;85.5
67893;DHT22;54688;52.376;16.744;2023-03-08T02:26:16;-0.3;85.8
67893;DHT22;54688;52.376;16.744;2023-03-08T02:29:18;-0.3;85.7
67893;DHT22;54688;52.376;16.744;2023-03-08T02:32:20;-0.3;85.8
67893;DHT22;54688;52.376;16.744;2023-03-08T02:35:22;-0.3;85.9
67893;DHT22;54688;52.376;16.744;2023-03-08T02:38:24;-0.3;86
67893;DHT22;54688;52.376;16.744;2023-03-08T02:41:26;-0.2;86.1
67893;DHT22;54688;52.376;16.744;2023-03-08T02:44:28;-0.2;85.9
67893;DHT22;54688;52.376;16.744;2023-03-08T02:47:31;-0.2;85.6
67893;DHT22;54688;52.376;16.744;2023-03-08T02:50:33;-0.3;85.2
67893;DHT22;54688;52.376;16.744;2023-03-08T02:53:35;-0.4;85.1
67893;DHT22;54688;52.376;16.744;2023-03-08T02:56:37;-0.4;85.2
67893;DHT22;54688;52.376;16.744;2023-03-08T02:59:39;-0.5;85.6
67893;DHT22;54688;52.376;16.744;2023-03-08T03:02:41;-0.5;85.8
67893;DHT22;54688;52.376;16.744;2023-03-08T03:05:43;-0.5;85.8
67893;DHT22;54688;52.376;16.744;2023-03-08T03:08:45;-0.5;85.8
67893;DHT22;54688;52.376;16.744;2023-03-08T03:11:47;-0.5;86.1
67893;DHT22;54688;52.376;16.744;2023-03-08T03:14:49;-0.5;86.5
67893;DHT22;54688;52.376;16.744;2023-03-08T03:17:51;-0.5;86.6
67893;DHT22;54688;52.376;16.744;2023-03-08T03:23:53;-0.5;86.2
67893;DHT22;54688;52.376;16.744;2023-03-08T03:29:55;-0.6;85.8
67893;DHT22;54688;52.376;16.744;2023-03-08T03:32:58;-0.6;85.6
67893;DHT22;54688;52.376;16.744;2023-03-08T03:36:00;-0.6;85.8
67893;DHT22;54688;52.376;16.744;2023-03-08T03:39:03;-0.6;86.1
67893;DHT22;54688;52.376;16.744;2023-03-08T03:42:05;-0.6;86.5
67893;DHT22;54688;52.376;16.744;2023-03-08T03:45:08;-0.5;86.6
67893;DHT22;54688;52.376;16.744;2023-03-08T03:48:10;-0.5;86.7
67893;DHT22;54688;52.376;16.744;2023-03-08T03:51:13;-0.4;86.5
67893;DHT22;54688;52.376;16.744;2023-03-08T03:54:16;-0.4;86.2
67893;DHT22;54688;52.376;16.744;2023-03-08T03:57:18;-0.3;86
67893;DHT22;54688;52.376;16.744;2023-03-08T04:00:20;-0.3;85.8
67893;DHT22;54688;52.376;16.744;2023-03-08T04:03:22;-0.2;85.4
67893;DHT22;54688;52.376;16.744;2023-03-08T04:06:25;-0.2;85.3
67893;DHT22;54688;52.376;16.744;2023-03-08T04:09:28;-0.2;85.1
67893;DHT22;54688;52.376;16.744;2023-03-08T04:12:31;-0.2;85.1
67893;DHT22;54688;52.376;16.744;2023-03-08T04:15:33;-0.2;85
67893;DHT22;54688;52.376;16.744;2023-03-08T04:18:35;-0.2;84.9
67893;DHT22;54688;52.376;16.744;2023-03-08T04:21:37;-0.1;84.9
67893;DHT22;54688;52.376;16.744;2023-03-08T04:24:47;-0.1;84.9
67893;DHT22;54688;52.376;16.744;2023-03-08T04:27:49;-0.1;84.8
67893;DHT22;54688;52.376;16.744;2023-03-08T04:30:51;-0.1;84.9
67893;DHT22;54688;52.376;16.744;2023-03-08T04:33:53;0;84.5
67893;DHT22;54688;52.376;16.744;2023-03-08T04:36:56;-0.1;84.4
67893;DHT22;54688;52.376;16.744;2023-03-08T04:39:58;0;84.2
67893;DHT22;54688;52.376;16.744;2023-03-08T04:43:00;-0.1;83.9
67893;DHT22;54688;52.376;16.744;2023-03-08T04:46:02;-0.1;83.7
67893;DHT22;54688;52.376;16.744;2023-03-08T04:49:05;-0.1;83.6
67893;DHT22;54688;52.376;16.744;2023-03-08T04:52:07;-0.1;83.7
67893;DHT22;54688;52.376;16.744;2023-03-08T04:55:09;-0.2;83.6
67893;DHT22;54688;52.376;16.744;2023-03-08T04:58:11;-0.2;83.6
67893;DHT22;54688;52.376;16.744;2023-03-08T05:01:14;-0.2;83.7
67893;DHT22;54688;52.376;16.744;2023-03-08T05:04:18;-0.2;83.7
67893;DHT22;54688;52.376;16.744;2023-03-08T05:07:20;-0.3;83.8
67893;DHT22;54688;52.376;16.744;2023-03-08T05:13:22;-0.2;83.7
67893;DHT22;54688;52.376;16.744;2023-03-08T05:16:24;-0.2;83.6
67893;DHT22;54688;52.376;16.744;2023-03-08T05:19:26;-0.3;83.7
67893;DHT22;54688;52.376;16.744;2023-03-08T05:22:28;-0.3;83.8
67893;DHT22;54688;52.376;16.744;2023-03-08T05:25:31;-0.3;83.8
67893;DHT22;54688;52.376;16.744;2023-03-08T05:28:33;-0.3;83.9
67893;DHT22;54688;52.376;16.744;2023-03-08T05:31:36;-0.3;83.8
67893;DHT22;54688;52.376;16.744;2023-03-08T05:34:38;-0.3;83.8
67893;DHT22;54688;52.376;16.744;2023-03-08T05:37:40;-0.3;83.8
67893;DHT22;54688;52.376;16.744;2023-03-08T05:40:42;-0.3;83.6
67893;DHT22;54688;52.376;16.744;2023-03-08T05:43:45;-0.3;83.4
67893;DHT22;54688;52.376;16.744;2023-03-08T05:46:48;-0.3;83.5
67893;DHT22;54688;52.376;16.744;2023-03-08T05:49:50;-0.3;83.8
67893;DHT22;54688;52.376;16.744;2023-03-08T05:52:52;-0.3;83.6
67893;DHT22;54688;52.376;16.744;2023-03-08T05:55:54;-0.3;83.5
67893;DHT22;54688;52.376;16.744;2023-03-08T05:58:56;-0.3;83.4
67893;DHT22;54688;52.376;16.744;2023-03-08T06:01:58;-0.3;83.3
67893;DHT22;54688;52.376;16.744;2023-03-08T06:05:01;-0.2;83.3
67893;DHT22;54688;52.376;16.744;2023-03-08T06:08:03;-0.2;83.3
67893;DHT22;54688;52.376;16.744;2023-03-08T06:11:06;-0.2;83
67893;DHT22;54688;52.376;16.744;2023-03-08T06:14:08;-0.2;83
67893;DHT22;54688;52.376;16.744;2023-03-08T06:17:10;-0.1;83
67893;DHT22;54688;52.376;16.744;2023-03-08T06:20:12;-0.1;82.8
67893;DHT22;54688;52.376;16.744;2023-03-08T06:23:14;-0.1;82.8
67893;DHT22;54688;52.376;16.744;2023-03-08T06:26:16;-0.1;82.5
67893;DHT22;54688;52.376;16.744;2023-03-08T06:29:18;-0.1;82.1
67893;DHT22;54688;52.376;16.744;2023-03-08T06:32:20;0;82.1
67893;DHT22;54688;52.376;16.744;2023-03-08T06:35:22;0;82.2
67893;DHT22;54688;52.376;16.744;2023-03-08T06:38:24;0;82
67893;DHT22;54688;52.376;16.744;2023-03-08T06:41:27;0;81.9
67893;DHT22;54688;52.376;16.744;2023-03-08T06:44:29;0.1;81.7
67893;DHT22;54688;52.376;16.744;2023-03-08T06:47:31;0.1;81.7
67893;DHT22;54688;52.376;16.744;2023-03-08T06:50:33;0.2;81.4
67893;DHT22;54688;52.376;16.744;2023-03-08T06:53:35;0.2;81.3
67893;DHT22;54688;52.376;16.744;2023-03-08T06:56:37;0.2;81.3
67893;DHT22;54688;52.376;16.744;2023-03-08T06:59:39;0.3;81.1
67893;DHT22;54688;52.376;16.744;2023-03-08T07:02:41;0.3;81
67893;DHT22;54688;52.376;16.744;2023-03-08T07:08:43;0.4;79.7
67893;DHT22;54688;52.376;16.744;2023-03-08T07:11:45;0.4;79.8
67893;DHT22;54688;52.376;16.744;2023-03-08T07:14:47;0.4;79.7
67893;DHT22;54688;52.376;16.744;2023-03-08T07:17:50;0.4;79.4
67893;DHT22;54688;52.376;16.744;2023-03-08T07:20:54;0.5;78.4
67893;DHT22;54688;52.376;16.744;2023-03-08T07:23:57;0.5;78
67893;DHT22;54688;52.376;16.744;2023-03-08T07:26:58;0.4;77
67893;DHT22;54688;52.376;16.744;2023-03-08T07:30:01;0.5;76.1
67893;DHT22;54688;52.376;16.744;2023-03-08T07:33:03;0.5;77.1
67893;DHT22;54688;52.376;16.744;2023-03-08T07:36:05;0.5;76.9
67893;DHT22;54688;52.376;16.744;2023-03-08T07:39:07;0.6;77.2
67893;DHT22;54688;52.376;16.744;2023-03-08T07:42:09;0.6;78.1
67893;DHT22;54688;52.376;16.744;2023-03-08T07:45:12;0.7;78.8
67893;DHT22;54688;52.376;16.744;2023-03-08T07:48:14;0.8;79.1
67893;DHT22;54688;52.376;16.744;2023-03-08T07:51:17;0.8;79.2
67893;DHT22;54688;52.376;16.744;2023-03-08T07:54:19;0.8;79.1
67893;DHT22;54688;52.376;16.744;2023-03-08T07:57:21;0.7;79.4
67893;DHT22;54688;52.376;16.744;2023-03-08T08:00:24;0.7;79.6
67893;DHT22;54688;52.376;16.744;2023-03-08T08:03:27;0.8;79.3
67893;DHT22;54688;52.376;16.744;2023-03-08T08:06:30;0.8;78.5
67893;DHT22;54688;52.376;16.744;2023-03-08T08:09:32;0.9;78.4
67893;DHT22;54688;52.376;16.744;2023-03-08T08:12:34;0.9;78.4
67893;DHT22;54688;52.376;16.744;2023-03-08T08:15:37;1;77.7
67893;DHT22;54688;52.376;16.744;2023-03-08T08:18:39;1;76.5
67893;DHT22;54688;52.376;16.744;2023-03-08T08:21:41;0.9;76.5
67893;DHT22;54688;52.376;16.744;2023-03-08T08:24:44;1;76.5
67893;DHT22;54688;52.376;16.744;2023-03-08T08:27:45;0.9;77.1
67893;DHT22;54688;52.376;16.744;2023-03-08T08:30:53;1;76.7
67893;DHT22;54688;52.376;16.744;2023-03-08T08:33:56;1;76.6
67893;DHT22;54688;52.376;16.744;2023-03-08T08:36:58;1;75.9
67893;DHT22;54688;52.376;16.744;2023-03-08T08:40:01;1.1;75.8
67893;DHT22;54688;52.376;16.744;2023-03-08T08:43:04;1.2;76.2
67893;DHT22;54688;52.376;16.744;2023-03-08T08:46:06;1.3;75.4
67893;DHT22;54688;52.376;16.744;2023-03-08T08:49:09;1.4;75.5
67893;DHT22;54688;52.376;16.744;2023-03-08T08:52:11;1.5;74.4
67893;DHT22;54688;52.376;16.744;2023-03-08T08:55:13;1.4;74.5
67893;DHT22;54688;52.376;16.744;2023-03-08T08:58:15;1.4;74.3
67893;DHT22;54688;52.376;16.744;2023-03-08T09:01:17;1.5;74.2
67893;DHT22;54688;52.376;16.744;2023-03-08T09:04:21;1.5;73.9
67893;DHT22;54688;52.376;16.744;2023-03-08T09:07:23;1.5;73.9
67893;DHT22;54688;52.376;16.744;2023-03-08T09:10:26;1.6;73.7
67893;DHT22;54688;52.376;16.744;2023-03-08T09:13:29;1.6;73.9
67893;DHT22;54688;52.376;16.744;2023-03-08T09:16:32;1.7;72.5
67893;DHT22;54688;52.376;16.744;2023-03-08T09:22:32;1.8;73.3
67893;DHT22;54688;52.376;16.744;2023-03-08T09:25:34;1.9;71.9
67893;DHT22;54688;52.376;16.744;2023-03-08T09:28:37;2;72.6
67893;DHT22;54688;52.376;16.744;2023-03-08T09:31:39;2;71.1
67893;DHT22;54688;52.376;16.744;2023-03-08T09:34:41;2;70.5
67893;DHT22;54688;52.376;16.744;2023-03-08T09:37:43;1.9;70.6
67893;DHT22;54688;52.376;16.744;2023-03-08T09:40:46;2;70.2
67893;DHT22;54688;52.376;16.744;2023-03-08T09:44:03;2;69.5
67893;DHT22;54688;52.376;16.744;2023-03-08T09:50:17;1.9;69.9
67893;DHT22;54688;52.376;16.744;2023-03-08T09:53:26;1.9;70.2
67893;DHT22;54688;52.376;16.744;2023-03-08T09:56:32;2;70.6
67893;DHT22;54688;52.376;16.744;2023-03-08T09:59:39;2;71
67893;DHT22;54688;52.376;16.744;2023-03-08T10:02:47;2.1;71
67893;DHT22;54688;52.376;16.744;2023-03-08T10:05:58;2.1;71.2
67893;DHT22;54688;52.376;16.744;2023-03-08T10:09:06;2.2;71.8
67893;DHT22;54688;52.376;16.744;2023-03-08T10:12:21;2.3;71.5
67893;DHT22;54688;52.376;16.744;2023-03-08T10:15:27;2.3;72
67893;DHT22;54688;52.376;16.744;2023-03-08T10:18:34;2.4;73.4
67893;DHT22;54688;52.376;16.744;2023-03-08T10:21:40;2.5;73
67893;DHT22;54688;52.376;16.744;2023-03-08T10:24:47;2.7;72.1
67893;DHT22;54688;52.376;16.744;2023-03-08T10:27:52;2.8;72.5
67893;DHT22;54688;52.376;16.744;2023-03-08T10:30:58;3;71.1
67893;DHT22;54688;52.376;16.744;2023-03-08T10:34:01;3;70.8
67893;DHT22;54688;52.376;16.744;2023-03-08T10:37:10;3;70.7
67893;DHT22;54688;52.376;16.744;2023-03-08T10:43:15;3;69.1
67893;DHT22;54688;52.376;16.744;2023-03-08T10:46:26;3;69.8
67893;DHT22;54688;52.376;16.744;2023-03-08T10:49:30;3.1;69.7
67893;DHT22;54688;52.376;16.744;2023-03-08T10:52:32;3.1;66.9
67893;DHT22;54688;52.376;16.744;2023-03-08T10:55:37;3.1;68.5
67893;DHT22;54688;52.376;16.744;2023-03-08T10:58:44;3.2;68.5
67893;DHT22;54688;52.376;16.744;2023-03-08T11:01:48;3.2;67.2
67893;DHT22;54688;52.376;16.744;2023-03-08T11:04:52;3.2;66.3
67893;DHT22;54688;52.376;16.744;2023-03-08T11:07:57;3.2;64.6
67893;DHT22;54688;52.376;16.744;2023-03-08T11:11:01;3.2;66.2
67893;DHT22;54688;52.376;16.744;2023-03-08T11:14:07;3.2;66
67893;DHT22;54688;52.376;16.744;2023-03-08T11:17:13;3.2;67
67893;DHT22;54688;52.376;16.744;2023-03-08T11:20:19;3.2;66.3
67893;DHT22;54688;52.376;16.744;2023-03-08T11:23:25;3.2;65.2
67893;DHT22;54688;52.376;16.744;2023-03-08T11:26:33;3.3;64.8
67893;DHT22;54688;52.376;16.744;2023-03-08T11:29:46;3.3;64.7
67893;DHT22;54688;52.376;16.744;2023-03-08T11:33:05;3.3;65.9
67893;DHT22;54688;52.376;16.744;2023-03-08T11:36:23;3.4;66
67893;DHT22;54688;52.376;16.744;2023-03-08T11:39:31;3.5;64.3
67893;DHT22;54688;52.376;16.744;2023-03-08T11:42:39;3.5;64.9
67893;DHT22;54688;52.376;16.744;2023-03-08T11:45:51;3.5;65.1
67893;DHT22;54688;52.376;16.744;2023-03-08T11:49:03;3.5;65.4
67893;DHT22;54688;52.376;16.744;2023-03-08T11:52:16;3.4;66.3
67893;DHT22;54688;52.376;16.744;2023-03-08T11:55:36;3.5;65
67893;DHT22;54688;52.376;16.744;2023-03-08T11:58:45;3.5;66
67893;DHT22;54688;52.376;16.744;2023-03-08T12:01:52;3.4;65.3
67893;DHT22;54688;52.376;16.744;2023-03-08T12:04:59;3.4;66.3
67893;DHT22;54688;52.376;16.744;2023-03-08T12:08:10;3.4;67.4
67893;DHT22;54688;52.376;16.744;2023-03-08T12:11:17;3.5;67.9
67893;DHT22;54688;52.376;16.744;2023-03-08T12:14:22;3.5;67.1
67893;DHT22;54688;52.376;16.744;2023-03-08T12:17:29;3.6;67.4
67893;DHT22;54688;52.376;16.744;2023-03-08T12:20:37;3.7;67.3
67893;DHT22;54688;52.376;16.744;2023-03-08T12:23:43;3.7;67.5
67893;DHT22;54688;52.376;16.744;2023-03-08T12:26:54;3.8;67.1
67893;DHT22;54688;52.376;16.744;2023-03-08T12:30:00;3.8;67.7
67893;DHT22;54688;52.376;16.744;2023-03-08T12:33:13;3.9;66.8
67893;DHT22;54688;52.376;16.744;2023-03-08T12:36:16;3.9;66.2
67893;DHT22;54688;52.376;16.744;2023-03-08T12:39:23;4;67.1
67893;DHT22;54688;52.376;16.744;2023-03-08T12:42:29;4.1;68.6
67893;DHT22;54688;52.376;16.744;2023-03-08T12:45:33;4.2;67.8
67893;DHT22;54688;52.376;16.744;2023-03-08T12:48:36;4.3;67.4
67893;DHT22;54688;52.376;16.744;2023-03-08T12:51:40;4.4;66.2
67893;DHT22;54688;52.376;16.744;2023-03-08T12:54:44;4.5;64.9
67893;DHT22;54688;52.376;16.744;2023-03-08T12:57:58;4.5;65.6
67893;DHT22;54688;52.376;16.744;2023-03-08T13:01:03;4.6;64.9
67893;DHT22;54688;52.376;16.744;2023-03-08T13:04:24;4.7;63.8
67893;DHT22;54688;52.376;16.744;2023-03-08T13:07:28;4.8;63.6
67893;DHT22;54688;52.376;16.744;2023-03-08T13:10:34;4.9;64.3
67893;DHT22;54688;52.376;16.744;2023-03-08T13:13:41;4.9;63.4
67893;DHT22;54688;52.376;16.744;2023-03-08T13:16:48;4.9;62.4
67893;DHT22;54688;52.376;16.744;2023-03-08T13:19:50;4.9;61.9
67893;DHT22;54688;52.376;16.744;2023-03-08T13:22:57;4.9;61.3
67893;DHT22;54688;52.376;16.744;2023-03-08T13:26:11;4.9;62.7
67893;DHT22;54688;52.376;16.744;2023-03-08T13:29:21;5;63.8
67893;DHT22;54688;52.376;16.744;2023-03-08T13:32:24;4.9;63.1
67893;DHT22;54688;52.376;16.744;2023-03-08T13:35:27;4.9;63.4
67893;DHT22;54688;52.376;16.744;2023-03-08T13:38:30;4.8;64.1
67893;DHT22;54688;52.376;16.744;2023-03-08T13:41:35;4.9;64.3
67893;DHT22;54688;52.376;16.744;2023-03-08T13:44:39;4.9;64.6
67893;DHT22;54688;52.376;16.744;2023-03-08T13:50:42;4.9;65.1
67893;DHT22;54688;52.376;16.744;2023-03-08T13:53:45;5;64.1
67893;DHT22;54688;52.376;16.744;2023-03-08T13:56:51;5;64
67893;DHT22;54688;52.376;16.744;2023-03-08T13:59:54;5;62.9
67893;DHT22;54688;52.376;16.744;2023-03-08T14:02:58;5;63.2
67893;DHT22;54688;52.376;16.744;2023-03-08T14:06:01;4.9;64.8
67893;DHT22;54688;52.376;16.744;2023-03-08T14:09:03;4.9;64.9
67893;DHT22;54688;52.376;16.744;2023-03-08T14:12:05;4.9;65.5
67893;DHT22;54688;52.376;16.744;2023-03-08T14:15:15;4.9;65.6
67893;DHT22;54688;52.376;16.744;2023-03-08T14:18:19;4.9;65.2
67893;DHT22;54688;52.376;16.744;2023-03-08T14:21:23;4.9;64.9
67893;DHT22;54688;52.376;16.744;2023-03-08T14:27:30;4.7;64.5
67893;DHT22;54688;52.376;16.744;2023-03-08T14:30:36;4.7;66.6
67893;DHT22;54688;52.376;16.744;2023-03-08T14:33:53;4.7;64.6
67893;DHT22;54688;52.376;16.744;2023-03-08T14:36:57;4.7;64.7
67893;DHT22;54688;52.376;16.744;2023-03-08T14:40:18;4.7;64.1
67893;DHT22;54688;52.376;16.744;2023-03-08T14:43:24;4.7;64.8
67893;DHT22;54688;52.376;16.744;2023-03-08T14:46:28;4.7;66.1
67893;DHT22;54688;52.376;16.744;2023-03-08T14:49:31;4.6;64.5
67893;DHT22;54688;52.376;16.744;2023-03-08T14:52:33;4.6;65.4
67893;DHT22;54688;52.376;16.744;2023-03-08T14:55:36;4.5;66.2
67893;DHT22;54688;52.376;16.744;2023-03-08T14:58:38;4.5;64.5
67893;DHT22;54688;52.376;16.744;2023-03-08T15:01:43;4.3;65.7
67893;DHT22;54688;52.376;16.744;2023-03-08T15:04:45;4.3;67.9
67893;DHT22;54688;52.376;16.744;2023-03-08T15:07:47;4.2;69.2
67893;DHT22;54688;52.376;16.744;2023-03-08T15:10:51;4.1;70.5
67893;DHT22;54688;52.376;16.744;2023-03-08T15:16:52;3.9;71.7
67893;DHT22;54688;52.376;16.744;2023-03-08T15:19:55;3.8;72.5
67893;DHT22;54688;52.376;16.744;2023-03-08T15:22:59;3.6;74
67893;DHT22;54688;52.376;16.744;2023-03-08T15:26:03;3.6;74.2
67893;DHT22;54688;52.376;16.744;2023-03-08T15:29:08;3.5;75.4
67893;DHT22;54688;52.376;16.744;2023-03-08T15:32:23;3.4;75.7
67893;DHT22;54688;52.376;16.744;2023-03-08T15:35:25;3.3;75.7
67893;DHT22;54688;52.376;16.744;2023-03-08T15:38:27;3.3;75.6
67893;DHT22;54688;52.376;16.744;2023-03-08T15:41:30;3.3;75.4
67893;DHT22;54688;52.376;16.744;2023-03-08T15:44:31;3.2;76.1
67893;DHT22;54688;52.376;16.744;2023-03-08T15:47:33;3.1;75.9
67893;DHT22;54688;52.376;16.744;2023-03-08T15:50:35;3.1;76.2
67893;DHT22;54688;52.376;16.744;2023-03-08T15:53:38;3;76.1
67893;DHT22;54688;52.376;16.744;2023-03-08T15:56:41;3;76.7
67893;DHT22;54688;52.376;16.744;2023-03-08T15:59:43;3;76.7
67893;DHT22;54688;52.376;16.744;2023-03-08T16:02:45;2.9;76.8
67893;DHT22;54688;52.376;16.744;2023-03-08T16:05:48;2.9;77.1
67893;DHT22;54688;52.376;16.744;2023-03-08T16:08:50;2.9;77.1
67893;DHT22;54688;52.376;16.744;2023-03-08T16:11:52;2.8;77
67893;DHT22;54688;52.376;16.744;2023-03-08T16:14:55;2.8;77.3
67893;DHT22;54688;52.376;16.744;2023-03-08T16:17:58;2.8;77.9
67893;DHT22;54688;52.376;16.744;2023-03-08T16:21:04;2.8;78.5
67893;DHT22;54688;52.376;16.744;2023-03-08T16:24:08;2.7;79.9
67893;DHT22;54688;52.376;16.744;2023-03-08T16:27:11;2.7;78.9
67893;DHT22;54688;52.376;16.744;2023-03-08T16:30:14;2.7;79.3
67893;DHT22;54688;52.376;16.744;2023-03-08T16:33:17;2.7;78.6
67893;DHT22;54688;52.376;16.744;2023-03-08T16:36:20;2.6;79.7
67893;DHT22;54688;52.376;16.744;2023-03-08T16:39:22;2.6;79.6
67893;DHT22;54688;52.376;16.744;2023-03-08T16:42:25;2.5;79.5
67893;DHT22;54688;52.376;16.744;2023-03-08T16:45:27;2.4;79.7
67893;DHT22;54688;52.376;16.744;2023-03-08T16:48:29;2.5;80
67893;DHT22;54688;52.376;16.744;2023-03-08T16:51:31;2.4;80.2
67893;DHT22;54688;52.376;16.744;2023-03-08T16:54:33;2.4;80.4
67893;DHT22;54688;52.376;16.744;2023-03-08T16:57:35;2.4;80.2
67893;DHT22;54688;52.376;16.744;2023-03-08T17:00:38;2.3;80.3
67893;DHT22;54688;52.376;16.744;2023-03-08T17:03:40;2.3;80.5
67893;DHT22;54688;52.376;16.744;2023-03-08T17:06:43;2.2;80.6
67893;DHT22;54688;52.376;16.744;2023-03-08T17:09:46;2.2;80.8
67893;DHT22;54688;52.376;16.744;2023-03-08T17:12:47;2.2;81.1
67893;DHT22;54688;52.376;16.744;2023-03-08T17:15:49;2.2;81.1
67893;DHT22;54688;52.376;16.744;2023-03-08T17:18:51;2.2;81.2
67893;DHT22;54688;52.376;16.744;2023-03-08T17:21:54;2.2;81.2
67893;DHT22;54688;52.376;16.744;2023-03-08T17:24:57;2.1;81.3
67893;DHT22;54688;52.376;16.744;2023-03-08T17:28:00;2.1;81.3
67893;DHT22;54688;52.376;16.744;2023-03-08T17:31:05;2.1;81.3
67893;DHT22;54688;52.376;16.744;2023-03-08T17:34:08;2;81.7
67893;DHT22;54688;52.376;16.744;2023-03-08T17:37:11;2;81.9
67893;DHT22;54688;52.376;16.744;2023-03-08T17:40:13;2;82
67893;DHT22;54688;52.376;16.744;2023-03-08T17:43:17;2;82.1
67893;DHT22;54688;52.376;16.744;2023-03-08T17:46:20;1.9;82.2
67893;DHT22;54688;52.376;16.744;2023-03-08T17:49:24;1.9;82.4
67893;DHT22;54688;52.376;16.744;2023-03-08T17:52:27;1.9;82.1
67893;DHT22;54688;52.376;16.744;2023-03-08T17:55:29;1.8;82.1
67893;DHT22;54688;52.376;16.744;2023-03-08T17:58:30;1.8;81.9
67893;DHT22;54688;52.376;16.744;2023-03-08T18:01:32;1.7;81.9
67893;DHT22;54688;52.376;16.744;2023-03-08T18:04:35;1.7;81.9
67893;DHT22;54688;52.376;16.744;2023-03-08T18:07:37;1.6;81.6
67893;DHT22;54688;52.376;16.744;2023-03-08T18:10:39;1.6;81.4
67893;DHT22;54688;52.376;16.744;2023-03-08T18:13:42;1.5;82.1
67893;DHT22;54688;52.376;16.744;2023-03-08T18:16:44;1.5;81.5
67893;DHT22;54688;52.376;16.744;2023-03-08T18:19:46;1.5;81.6
67893;DHT22;54688;52.376;16.744;2023-03-08T18:22:49;1.4;81.3
67893;DHT22;54688;52.376;16.744;2023-03-08T18:25:51;1.4;81.7
67893;DHT22;54688;52.376;16.744;2023-03-08T18:31:52;1.3;82
67893;DHT22;54688;52.376;16.744;2023-03-08T18:34:54;1.4;81.9
67893;DHT22;54688;52.376;16.744;2023-03-08T18:37:56;1.4;81.9
67893;DHT22;54688;52.376;16.744;2023-03-08T18:40:58;1.3;81.9
67893;DHT22;54688;52.376;16.744;2023-03-08T18:44:00;1.3;82.7
67893;DHT22;54688;52.376;16.744;2023-03-08T18:47:02;1.2;82.2
67893;DHT22;54688;52.376;16.744;2023-03-08T18:50:05;1.3;83.2
67893;DHT22;54688;52.376;16.744;2023-03-08T18:53:08;1.2;82.6
67893;DHT22;54688;52.376;16.744;2023-03-08T18:56:10;1.2;82.5
67893;DHT22;54688;52.376;16.744;2023-03-08T18:59:12;1.2;82.7
67893;DHT22;54688;52.376;16.744;2023-03-08T19:02:14;1.2;82.7
67893;DHT22;54688;52.376;16.744;2023-03-08T19:05:16;1.2;82.8
67893;DHT22;54688;52.376;16.744;2023-03-08T19:08:18;1.2;82.8
67893;DHT22;54688;52.376;16.744;2023-03-08T19:11:22;1.1;82.8
67893;DHT22;54688;52.376;16.744;2023-03-08T19:14:26;1.1;82.8
67893;DHT22;54688;52.376;16.744;2023-03-08T19:17:28;1.1;82.8
67893;DHT22;54688;52.376;16.744;2023-03-08T19:20:33;1.1;83
67893;DHT22;54688;52.376;16.744;2023-03-08T19:23:36;1.1;83
67893;DHT22;54688;52.376;16.744;2023-03-08T19:26:38;1.1;83.1
67893;DHT22;54688;52.376;16.744;2023-03-08T19:29:41;1.1;83.1
67893;DHT22;54688;52.376;16.744;2023-03-08T19:32:43;1.1;83.2
67893;DHT22;54688;52.376;16.744;2023-03-08T19:35:45;1;83.2
67893;DHT22;54688;52.376;16.744;2023-03-08T19:38:47;1;83.4
67893;DHT22;54688;52.376;16.744;2023-03-08T19:41:49;1;83.3
67893;DHT22;54688;52.376;16.744;2023-03-08T19:44:52;1;83.4
67893;DHT22;54688;52.376;16.744;2023-03-08T19:47:54;1;83.4
67893;DHT22;54688;52.376;16.744;2023-03-08T19:50:56;1;83.6
67893;DHT22;54688;52.376;16.744;2023-03-08T19:53:59;1;83.6
67893;DHT22;54688;52.376;16.744;2023-03-08T19:57:02;1;83.6
67893;DHT22;54688;52.376;16.744;2023-03-08T20:00:06;1;83.6
67893;DHT22;54688;52.376;16.744;2023-03-08T20:03:09;0.9;83.5
67893;DHT22;54688;52.376;16.744;2023-03-08T20:06:12;0.9;83.6
67893;DHT22;54688;52.376;16.744;2023-03-08T20:09:20;0.9;83.7
67893;DHT22;54688;52.376;16.744;2023-03-08T20:12:22;0.9;83.8
67893;DHT22;54688;52.376;16.744;2023-03-08T20:15:25;0.9;83.9
67893;DHT22;54688;52.376;16.744;2023-03-08T20:18:27;0.9;84.5
67893;DHT22;54688;52.376;16.744;2023-03-08T20:21:29;0.9;84.1
67893;DHT22;54688;52.376;16.744;2023-03-08T20:24:31;0.9;84.1
67893;DHT22;54688;52.376;16.744;2023-03-08T20:27:34;0.9;84.1
67893;DHT22;54688;52.376;16.744;2023-03-08T20:30:36;0.9;84.1
67893;DHT22;54688;52.376;16.744;2023-03-08T20:33:39;0.9;84.1
67893;DHT22;54688;52.376;16.744;2023-03-08T20:36:41;0.9;84.1
67893;DHT22;54688;52.376;16.744;2023-03-08T20:39:43;0.9;84.1